Time;durP1;ratioP1;P1;durP2;ratioP2;P2;SDS_P1;SDS_P2;PMS_P1;PMS_P2;Temp;Humidity;BMP_temperature;BMP_pressure;BME280_temperature;BME280_humidity;BME280_pressure;Samples;Min_cycle;Max_cycle;Signal;HPM_P1;HPM_P2
2024/01/05 00:05:19;;;;;;;5.90;1.65;;;;;;;19.04;40.06;99710.44;16107160;19;130937;-64
2024/01/05 00:10:41;;;;;;;3.40;1.40;;;;;;;19.00;40.20;99703.78;16105294;19;130573;-64
2024/01/05 00:16:03;;;;;;;3.40;1.30;;;;;;;18.97;40.29;99715.41;16104800;19;129673;-65
2024/01/05 00:21:27;;;;;;;6.13;1.13;;;;;;;18.95;40.13;99700.16;16107163;19;130550;-64
2024/01/05 00:26:49;;;;;;;3.67;1.20;;;;;;;18.92;40.07;99704.34;16108012;19;132565;-64
2024/01/05 00:32:11;;;;;;;2.83;1.20;;;;;;;18.88;40.17;99697.69;16106777;19;130429;-64
2024/01/05 00:37:36;;;;;;;4.72;1.38;;;;;;;18.84;39.89;99686.31;16101588;19;129825;-64
2024/01/05 00:42:58;;;;;;;6.65;1.25;;;;;;;18.83;40.26;99681.91;16104760;19;129771;-63
2024/01/05 00:48:20;;;;;;;3.53;0.80;;;;;;;18.81;39.88;99680.53;16104828;19;130667;-63
2024/01/05 00:53:42;;;;;;;3.80;0.90;;;;;;;18.80;40.10;99678.84;16105062;19;130581;-64
2024/01/05 00:59:05;;;;;;;3.47;1.08;;;;;;;18.77;40.13;99674.69;16100275;19;130896;-64
2024/01/05 01:04:27;;;;;;;4.50;1.30;;;;;;;18.75;40.01;99666.66;16101973;19;129770;-64
2024/01/05 01:09:49;;;;;;;4.32;1.23;;;;;;;18.73;40.18;99663.31;16105755;19;130836;-64
2024/01/05 01:15:11;;;;;;;2.95;1.10;;;;;;;18.71;40.00;99654.47;16107413;19;130104;-64
2024/01/05 01:20:33;;;;;;;2.63;0.90;;;;;;;18.70;40.19;99643.66;16113564;19;130783;-64
2024/01/05 01:25:55;;;;;;;3.25;1.17;;;;;;;18.68;40.39;99635.66;16106117;19;131345;-64
2024/01/05 01:31:17;;;;;;;4.38;1.05;;;;;;;18.66;40.49;99623.16;16107009;19;130722;-64
2024/01/05 01:36:39;;;;;;;2.13;0.73;;;;;;;18.63;40.33;99616.25;16108814;19;130891;-64
2024/01/05 01:42:03;;;;;;;1.77;0.80;;;;;;;18.63;40.43;99613.47;16103992;19;129322;-63
2024/01/05 01:47:26;;;;;;;4.50;1.00;;;;;;;18.61;40.22;99621.22;16103164;19;130180;-64
2024/01/05 01:52:48;;;;;;;3.58;0.80;;;;;;;18.59;40.02;99606.81;16108489;19;129866;-64
2024/01/05 01:58:12;;;;;;;3.80;1.02;;;;;;;18.57;40.38;99597.97;16103837;19;129933;-64
2024/01/05 02:03:34;;;;;;;2.53;0.70;;;;;;;18.56;40.38;99585.25;16108245;19;133000;-64
2024/01/05 02:08:57;;;;;;;3.45;1.00;;;;;;;18.55;40.31;99572.50;16104503;19;129896;-64
2024/01/05 02:14:19;;;;;;;2.10;0.68;;;;;;;18.53;40.14;99560.88;16103065;19;132726;-64
2024/01/05 02:19:41;;;;;;;2.70;1.00;;;;;;;18.51;40.45;99554.78;16107995;19;130310;-64
2024/01/05 02:25:04;;;;;;;3.13;0.90;;;;;;;18.51;40.04;99549.22;16102824;19;129876;-64
2024/01/05 02:30:26;;;;;;;2.25;0.68;;;;;;;18.50;40.12;99545.66;16102606;19;133023;-64
2024/01/05 02:35:50;;;;;;;3.97;0.70;;;;;;;18.47;40.31;99535.13;16107585;19;130147;-64
2024/01/05 02:41:12;;;;;;;1.80;0.80;;;;;;;18.48;39.98;99527.63;16103109;19;129733;-64
2024/01/05 02:46:35;;;;;;;2.95;0.90;;;;;;;18.46;39.87;99531.50;16107119;19;132548;-64
2024/01/05 02:51:57;;;;;;;2.53;0.65;;;;;;;18.44;39.90;99511.59;16103214;19;129160;-63
2024/01/05 02:57:19;;;;;;;1.13;0.40;;;;;;;18.41;40.32;99512.16;16103962;19;130277;-64
2024/01/05 03:02:41;;;;;;;2.35;0.60;;;;;;;18.41;39.81;99506.59;16105181;19;129780;-64
2024/01/05 03:08:03;;;;;;;2.85;0.60;;;;;;;18.39;40.13;99496.91;16101874;19;129650;-64
2024/01/05 03:13:25;;;;;;;1.08;0.50;;;;;;;18.37;40.29;99483.31;16103432;19;130991;-64
2024/01/05 03:18:47;;;;;;;1.80;0.50;;;;;;;18.37;39.82;99483.31;16104490;19;130079;-64
2024/01/05 03:24:10;;;;;;;2.67;0.60;;;;;;;18.35;39.78;99477.22;16102210;19;134475;-64
2024/01/05 03:29:32;;;;;;;1.65;0.50;;;;;;;18.34;40.06;99461.72;16101853;19;129819;-63
2024/01/05 03:34:54;;;;;;;2.95;0.60;;;;;;;18.34;39.92;99452.59;16105088;19;134127;-64
2024/01/05 03:40:16;;;;;;;1.77;0.60;;;;;;;18.32;39.87;99444.59;16118763;19;129511;-64
2024/01/05 03:45:38;;;;;;;1.50;0.32;;;;;;;18.30;39.72;99444.84;16113216;19;130551;-64
2024/01/05 03:51:00;;;;;;;1.27;0.50;;;;;;;18.30;39.72;99427.41;16111721;19;131284;-64
2024/01/05 03:56:22;;;;;;;1.02;0.47;;;;;;;18.28;40.00;99413.03;16116316;19;129730;-64
2024/01/05 04:01:45;;;;;;;1.80;0.52;;;;;;;18.27;40.04;99405.81;16113521;19;131860;-62
2024/01/05 04:07:08;;;;;;;1.58;0.60;;;;;;;18.25;39.89;99396.97;16114529;19;130542;-64
2024/01/05 04:12:30;;;;;;;4.03;0.65;;;;;;;18.25;40.05;99403.34;16122198;19;130228;-64
2024/01/05 04:17:52;;;;;;;1.42;0.50;;;;;;;18.24;39.83;99400.84;16111093;19;130178;-64
2024/01/05 04:23:14;;;;;;;2.25;0.70;;;;;;;18.23;39.83;99388.97;16118354;19;129803;-64
2024/01/05 04:28:36;;;;;;;2.53;0.60;;;;;;;18.22;39.44;99392.00;16113370;19;130865;-64
2024/01/05 04:33:58;;;;;;;2.40;0.68;;;;;;;18.22;39.45;99386.44;16112271;19;131277;-64
2024/01/05 04:39:20;;;;;;;1.40;0.63;;;;;;;18.20;39.66;99389.50;16111724;19;129886;-64
2024/01/05 04:44:42;;;;;;;1.55;0.40;;;;;;;18.20;39.23;99383.16;16111299;19;129320;-64
2024/01/05 04:50:04;;;;;;;2.08;0.68;;;;;;;18.18;39.22;99379.84;16111842;19;130878;-64
2024/01/05 04:55:26;;;;;;;1.38;0.50;;;;;;;18.17;39.42;99384.53;16110128;19;129880;-64
2024/01/05 05:00:48;;;;;;;2.20;0.50;;;;;;;18.17;39.31;99376.22;16115718;19;129631;-64
2024/01/05 05:06:11;;;;;;;2.95;0.77;;;;;;;18.16;39.19;99371.78;16108047;19;129838;-64
2024/01/05 05:11:33;;;;;;;1.92;0.50;;;;;;;18.15;39.36;99370.97;16112799;19;129266;-64
2024/01/05 05:16:55;;;;;;;1.83;0.68;;;;;;;18.13;38.97;99378.72;16109471;19;130640;-64
2024/01/05 05:22:16;;;;;;;2.05;0.65;;;;;;;18.13;38.89;99381.50;16109158;19;130499;-64
2024/01/05 05:27:38;;;;;;;1.00;0.45;;;;;;;18.14;38.88;99379.56;16106114;19;129824;-63
2024/01/05 05:33:00;;;;;;;1.90;0.45;;;;;;;18.11;38.63;99380.94;16107680;19;130767;-64
2024/01/05 05:38:23;;;;;;;1.70;0.50;;;;;;;18.11;38.88;99380.94;16104503;19;130373;-64
2024/01/05 05:43:45;;;;;;;0.73;0.22;;;;;;;18.10;38.61;99379.28;16106626;19;130743;-63
2024/01/05 05:49:08;;;;;;;1.13;0.30;;;;;;;18.09;38.54;99397.00;16110200;19;129528;-64
2024/01/05 05:54:30;;;;;;;0.77;0.30;;;;;;;18.07;38.57;99381.78;16110968;19;131145;-64
2024/01/05 05:59:52;;;;;;;1.05;0.40;;;;;;;18.05;38.16;99371.00;16102256;19;130163;-63
2024/01/05 06:05:14;;;;;;;2.78;0.40;;;;;;;18.07;37.91;99379.03;16108603;19;129480;-65
2024/01/05 06:10:36;;;;;;;1.02;0.50;;;;;;;18.06;37.24;99383.75;16099263;19;130750;-64
2024/01/05 06:15:58;;;;;;;2.08;0.25;;;;;;;18.07;37.24;99379.88;16094067;19;130757;-63
2024/01/05 06:21:19;;;;;;;1.73;0.22;;;;;;;18.06;37.46;99393.97;16102033;19;130002;-63
2024/01/05 06:26:41;;;;;;;1.50;0.30;;;;;;;18.04;37.41;99380.41;16099244;19;130331;-64
2024/01/05 06:32:04;;;;;;;0.50;0.10;;;;;;;18.05;37.16;99386.78;16101418;19;129640;-63
2024/01/05 06:37:26;;;;;;;1.38;0.25;;;;;;;18.04;37.37;99380.41;16100848;19;129506;-65
2024/01/05 06:42:48;;;;;;;1.63;0.30;;;;;;;18.04;36.97;99382.34;16102670;19;129504;-63
2024/01/05 06:48:10;;;;;;;1.65;0.30;;;;;;;18.05;36.75;99384.00;16096461;19;129723;-63
2024/01/05 06:53:32;;;;;;;1.45;0.20;;;;;;;18.03;36.86;99398.13;16101768;19;129734;-63
2024/01/05 06:58:55;;;;;;;2.22;0.20;;;;;;;18.02;36.73;99393.69;16100342;19;133176;-63
2024/01/05 07:04:17;;;;;;;5.15;0.30;;;;;;;18.01;36.35;99397.56;16100421;19;131129;-63
2024/01/05 07:09:39;;;;;;;4.13;0.43;;;;;;;17.99;36.07;99395.09;16103867;19;130660;-63
2024/01/05 07:15:01;;;;;;;4.78;0.38;;;;;;;18.00;36.25;99379.31;16116730;19;129440;-63
2024/01/05 07:20:23;;;;;;;2.53;0.32;;;;;;;17.98;36.16;99393.44;16116967;19;130203;-63
2024/01/05 07:25:45;;;;;;;2.65;0.30;;;;;;;17.96;36.03;99397.59;16114454;19;130016;-63
2024/01/05 07:31:09;;;;;;;1.27;0.25;;;;;;;17.94;36.22;99405.34;16116682;19;129919;-63
2024/01/05 07:36:32;;;;;;;1.20;0.30;;;;;;;17.93;36.27;99412.00;16115150;19;131346;-63
2024/01/05 07:41:54;;;;;;;1.08;0.20;;;;;;;17.91;36.13;99417.78;16118549;19;130311;-63
2024/01/05 07:47:16;;;;;;;1.05;0.20;;;;;;;17.90;36.33;99434.66;16114166;19;129898;-63
2024/01/05 07:52:38;;;;;;;1.88;0.20;;;;;;;17.87;36.01;99441.59;16112088;19;129831;-62
2024/01/05 07:58:00;;;;;;;1.38;0.38;;;;;;;17.87;36.09;99451.81;16113466;19;129599;-63
2024/01/05 08:03:22;;;;;;;0.63;0.22;;;;;;;17.87;36.01;99462.88;16110668;19;129498;-63
2024/01/05 08:08:45;;;;;;;0.88;0.20;;;;;;;17.85;36.03;99474.22;16112576;19;130944;-63
2024/01/05 08:14:07;;;;;;;0.45;0.10;;;;;;;17.84;36.49;99480.88;16115015;19;130161;-63
2024/01/05 08:19:29;;;;;;;2.55;0.20;;;;;;;17.83;36.25;99477.28;16114889;19;135105;-62
2024/01/05 08:24:52;;;;;;;1.63;0.30;;;;;;;17.82;36.18;99478.41;16112805;19;130754;-62
2024/01/05 08:30:14;;;;;;;2.38;0.30;;;;;;;17.81;36.36;99475.88;16114880;19;130213;-63
2024/01/05 08:35:36;;;;;;;0.65;0.10;;;;;;;17.78;36.31;99471.75;16109416;19;130326;-63
2024/01/05 08:40:58;;;;;;;0.43;0.10;;;;;;;17.76;36.43;99473.13;16111749;19;130895;-63
2024/01/05 08:46:20;;;;;;;0.40;0.20;;;;;;;17.76;36.43;99479.47;16110476;19;130110;-63
2024/01/05 08:51:43;;;;;;;4.03;0.40;;;;;;;17.74;36.39;99476.16;16109139;19;129834;-63
2024/01/05 08:57:07;;;;;;;2.47;0.20;;;;;;;17.73;36.29;99480.03;16112144;19;131402;-63
2024/01/05 09:02:29;;;;;;;2.50;0.38;;;;;;;17.72;36.53;99497.75;16111953;19;129779;-63
2024/01/05 09:07:51;;;;;;;0.88;0.32;;;;;;;17.72;36.41;99496.91;16107874;19;132140;-61
2024/01/05 09:13:13;;;;;;;1.35;0.25;;;;;;;17.70;36.34;99502.72;16110070;19;129581;-62
2024/01/05 09:18:35;;;;;;;0.95;0.25;;;;;;;17.69;36.17;99526.78;16101671;19;130069;-62
2024/01/05 09:23:57;;;;;;;1.48;0.30;;;;;;;17.69;36.55;99520.44;16105348;19;130102;-62
2024/01/05 09:29:19;;;;;;;2.53;0.20;;;;;;;17.67;36.12;99533.69;16103553;19;131221;-62
2024/01/05 09:34:42;;;;;;;7.25;0.50;;;;;;;17.66;36.10;99552.22;16102762;19;129613;-62
2024/01/05 09:40:05;;;;;;;0.80;0.30;;;;;;;17.66;36.29;99551.38;16099068;19;131001;-62
2024/01/05 09:45:27;;;;;;;5.88;0.40;;;;;;;17.65;36.50;99552.50;16108115;19;130891;-62
2024/01/05 09:50:55;;;;;;;3.08;0.60;;;;;;;17.65;36.06;99555.25;16105725;19;133392;-62
2024/01/05 09:56:17;;;;;;;1.23;0.40;;;;;;;17.63;36.49;99557.47;16105504;19;129358;-62
2024/01/05 10:01:41;;;;;;;6.63;0.68;;;;;;;17.63;36.13;99568.53;16104257;19;130305;-62
2024/01/05 10:07:04;;;;;;;4.85;0.50;;;;;;;17.61;36.36;99571.56;16102614;19;129409;-62
2024/01/05 10:12:26;;;;;;;0.95;0.22;;;;;;;17.61;36.30;99570.72;16105288;19;129731;-63
2024/01/05 10:17:49;;;;;;;1.38;0.30;;;;;;;17.61;36.36;99576.25;16105036;19;130196;-63
2024/01/05 10:23:13;;;;;;;1.13;0.30;;;;;;;17.59;36.33;99567.44;16103875;19;129682;-63
2024/01/05 10:28:37;;;;;;;1.70;0.40;;;;;;;17.58;36.34;99560.22;16103959;19;129695;-63
2024/01/05 10:34:00;;;;;;;1.35;0.35;;;;;;;17.57;36.58;99575.97;16103220;19;133674;-62
2024/01/05 10:39:22;;;;;;;4.72;0.35;;;;;;;17.56;36.39;99565.19;16101686;19;130516;-62
2024/01/05 10:44:45;;;;;;;1.38;0.38;;;;;;;17.54;36.19;99571.81;16105239;19;129921;-63
2024/01/05 10:50:08;;;;;;;0.45;0.28;;;;;;;17.56;36.28;99570.72;16120240;19;130401;-62
2024/01/05 10:55:32;;;;;;;2.47;0.50;;;;;;;17.53;36.48;99567.38;16119047;19;130655;-62
2024/01/05 11:00:57;;;;;;;2.25;0.55;;;;;;;17.53;36.36;99580.38;16116437;19;129717;-63
2024/01/05 11:06:20;;;;;;;0.63;0.32;;;;;;;17.51;36.39;99579.81;16116732;19;131832;-62
2024/01/05 11:11:49;;;;;;;1.88;0.57;;;;;;;17.51;36.49;99588.91;16116014;19;131146;-62
2024/01/05 11:17:31;;;;;;;0.75;0.20;;;;;;;17.50;36.62;99581.72;16114410;19;129881;-62
2024/01/05 11:22:54;;;;;;;2.67;0.40;;;;;;;17.50;36.41;99587.25;16112358;19;130849;-63
2024/01/05 11:28:36;;;;;;;3.25;0.63;;;;;;;17.50;36.61;99581.72;16114470;19;131538;-63
2024/01/05 11:33:58;;;;;;;3.50;0.65;;;;;;;17.49;36.70;99582.00;16114205;19;129515;-72
2024/01/05 11:39:45;;;;;;;4.93;0.60;;;;;;;17.50;36.70;99587.25;16113118;19;129408;-63
2024/01/05 11:45:11;;;;;;;6.68;0.90;;;;;;;17.49;36.58;99577.28;16115720;19;129568;-63
2024/01/05 11:50:35;;;;;;;9.38;1.52;;;;;;;17.48;36.57;99578.41;16110761;19;130482;-63
2024/01/05 11:56:03;;;;;;;4.63;0.80;;;;;;;17.50;36.63;99578.97;16109602;19;129647;-63
2024/01/05 12:01:26;;;;;;;5.40;1.25;;;;;;;17.51;36.76;99577.03;16112440;19;130151;-63
2024/01/05 12:06:52;;;;;;;5.32;1.25;;;;;;;17.51;36.49;99577.88;16110805;19;129489;-63
2024/01/05 12:12:17;;;;;;;3.28;1.30;;;;;;;17.51;36.87;99582.56;16113681;19;133227;-63
2024/01/05 12:17:39;;;;;;;4.88;1.33;;;;;;;17.50;36.85;99592.78;16114287;19;130581;-62
2024/01/05 12:23:03;;;;;;;3.88;1.05;;;;;;;17.49;37.09;99585.59;16112197;19;130204;-63
2024/01/05 12:28:29;;;;;;;2.78;1.17;;;;;;;17.51;37.19;99590.88;16110252;19;130534;-62
2024/01/05 12:33:52;;;;;;;2.97;0.90;;;;;;;17.50;37.10;99591.97;16109135;19;130497;-62
2024/01/05 12:39:15;;;;;;;2.25;1.10;;;;;;;17.47;36.80;99593.34;16110736;19;130411;-62
2024/01/05 12:44:37;;;;;;;2.38;0.88;;;;;;;17.48;36.86;99599.69;16108827;19;129807;-63
2024/01/05 12:49:59;;;;;;;2.55;1.13;;;;;;;17.47;37.20;99604.41;16108491;19;129644;-63
2024/01/05 12:55:28;;;;;;;2.88;0.80;;;;;;;17.46;37.22;99613.81;16108888;19;129310;-63
2024/01/05 13:00:52;;;;;;;9.07;0.93;;;;;;;17.45;37.25;99603.84;16113911;19;129703;-62
2024/01/05 13:06:15;;;;;;;2.17;0.93;;;;;;;17.44;37.19;99609.63;16108361;19;129417;-62
2024/01/05 13:11:37;;;;;;;4.68;0.98;;;;;;;17.42;37.19;99609.91;16107111;19;129572;-63
2024/01/05 13:17:00;;;;;;;3.15;1.40;;;;;;;17.44;37.33;99618.78;16112077;19;130863;-62
2024/01/05 13:22:22;;;;;;;3.40;0.93;;;;;;;17.43;36.90;99627.31;16108472;19;130878;-62
2024/01/05 13:27:46;;;;;;;5.43;0.88;;;;;;;17.40;36.95;99614.88;16105338;19;129894;-62
2024/01/05 13:33:07;;;;;;;2.65;0.85;;;;;;;17.40;37.41;99620.41;16108917;19;129695;-62
2024/01/05 13:38:30;;;;;;;2.20;0.73;;;;;;;17.40;37.11;99631.47;16105419;19;131537;-62
2024/01/05 13:43:52;;;;;;;2.03;0.70;;;;;;;17.38;37.09;99622.59;16107000;19;130414;-62
2024/01/05 13:49:13;;;;;;;2.38;0.70;;;;;;;17.37;37.02;99641.13;16108096;19;130790;-62
2024/01/05 13:54:35;;;;;;;1.48;0.63;;;;;;;17.36;37.05;99633.09;16106870;19;130010;-62
2024/01/05 13:59:57;;;;;;;2.47;0.88;;;;;;;17.36;37.10;99646.91;16105674;19;130420;-63
2024/01/05 14:05:19;;;;;;;2.88;0.95;;;;;;;17.35;37.05;99656.34;16101399;19;129558;-62
2024/01/05 14:10:41;;;;;;;1.00;0.70;;;;;;;17.34;37.12;99657.44;16104418;19;130898;-63
2024/01/05 14:16:08;;;;;;;1.80;0.50;;;;;;;17.36;37.15;99671.78;16103539;19;129635;-62
2024/01/05 14:21:30;;;;;;;2.53;0.43;;;;;;;17.33;37.36;99677.88;16105559;19;130138;-63
2024/01/05 14:26:52;;;;;;;2.10;0.50;;;;;;;17.32;36.86;99685.31;16103989;19;130595;-62
2024/01/05 14:32:15;;;;;;;2.00;0.77;;;;;;;17.32;36.94;99698.31;16103605;19;129502;-63
2024/01/05 14:37:38;;;;;;;1.10;0.60;;;;;;;17.30;37.28;99704.09;16101969;19;129608;-62
2024/01/05 14:43:00;;;;;;;1.00;0.40;;;;;;;17.30;37.06;99717.09;16100883;19;131245;-62
2024/01/05 14:48:23;;;;;;;1.10;0.70;;;;;;;17.31;37.03;99732.59;16098784;19;131441;-63
2024/01/05 14:53:45;;;;;;;1.42;0.50;;;;;;;17.29;37.40;99740.31;16099776;19;129745;-63
2024/01/05 14:59:07;;;;;;;10.10;1.10;;;;;;;17.28;37.33;99756.09;16102119;19;129415;-62
2024/01/05 15:04:29;;;;;;;1.40;0.50;;;;;;;17.26;37.47;99747.22;16100276;19;132959;-62
2024/01/05 15:09:53;;;;;;;5.97;1.00;;;;;;;17.24;37.18;99753.00;16092701;19;132560;-62
2024/01/05 15:15:15;;;;;;;2.85;0.63;;;;;;;17.25;37.12;99762.13;16096258;19;131311;-62
2024/01/05 15:20:37;;;;;;;1.02;0.50;;;;;;;17.26;37.34;99774.00;16100262;19;129836;-62
2024/01/05 15:26:00;;;;;;;3.67;0.65;;;;;;;17.26;37.40;99796.13;16097781;19;129438;-62
2024/01/05 15:31:22;;;;;;;5.28;0.60;;;;;;;17.23;37.19;99787.25;16100922;19;129150;-62
2024/01/05 15:36:53;;;;;;;3.72;0.70;;;;;;;17.23;37.72;99806.59;16110221;19;129767;-62
2024/01/05 15:42:15;;;;;;;4.90;0.70;;;;;;;17.22;37.67;99804.97;16113778;19;129638;-63
2024/01/05 15:47:37;;;;;;;2.28;0.70;;;;;;;17.21;37.32;99819.88;16112080;19;131551;-63
2024/01/05 15:52:59;;;;;;;2.10;0.70;;;;;;;17.24;37.71;99822.09;16111544;19;129521;-62
2024/01/05 15:58:20;;;;;;;5.95;0.65;;;;;;;17.36;37.35;99824.69;16115052;19;129534;-63
2024/01/05 16:03:42;;;;;;;4.35;0.60;;;;;;;17.56;37.14;99820.44;16112379;19;130548;-63
2024/01/05 16:09:05;;;;;;;1.73;0.70;;;;;;;17.83;36.93;99828.63;16110494;19;131163;-63
2024/01/05 16:14:27;;;;;;;2.53;0.47;;;;;;;18.13;37.10;99832.66;16104153;19;129450;-63
2024/01/05 16:19:49;;;;;;;0.65;0.32;;;;;;;18.46;36.53;99838.06;16105885;19;130421;-63
2024/01/05 16:25:11;;;;;;;3.28;0.47;;;;;;;18.70;36.60;99835.66;16110440;19;130796;-63
2024/01/05 16:30:33;;;;;;;3.35;0.65;;;;;;;18.87;35.90;99848.44;16111296;19;129133;-63
2024/01/05 16:35:56;;;;;;;1.63;0.45;;;;;;;18.99;35.91;99856.50;16109263;19;131223;-63
2024/01/05 16:41:23;;;;;;;1.10;0.50;;;;;;;19.06;35.97;99865.38;16110225;19;130524;-63
2024/01/05 16:46:46;;;;;;;1.50;0.60;;;;;;;19.07;36.02;99844.84;16105271;19;130588;-62
2024/01/05 16:52:08;;;;;;;0.88;0.40;;;;;;;19.05;35.71;99853.47;16105489;19;130230;-62
2024/01/05 16:57:30;;;;;;;1.40;0.40;;;;;;;19.01;35.87;99841.25;16106616;19;130982;-62
2024/01/05 17:02:52;;;;;;;1.83;0.50;;;;;;;18.95;35.67;99847.91;16103443;19;130634;-62
2024/01/05 17:08:14;;;;;;;1.17;0.60;;;;;;;18.89;35.78;99862.84;16107948;19;131147;-69
2024/01/05 17:13:37;;;;;;;6.70;0.93;;;;;;;18.82;35.89;99871.41;16097248;19;130487;-63
2024/01/05 17:19:00;;;;;;;1.63;0.45;;;;;;;18.74;36.15;99870.00;16105689;19;129957;-63
2024/01/05 17:24:22;;;;;;;3.35;0.60;;;;;;;18.69;36.09;99883.88;16105956;19;129755;-63
2024/01/05 17:29:45;;;;;;;5.85;0.50;;;;;;;18.71;36.35;99870.56;16106916;19;130391;-63
2024/01/05 17:35:08;;;;;;;5.50;0.60;;;;;;;18.80;36.24;99884.72;16106601;19;130248;-63
2024/01/05 17:40:30;;;;;;;2.33;0.40;;;;;;;19.04;35.90;99890.59;16105222;19;131732;-63
2024/01/05 17:45:52;;;;;;;2.80;0.60;;;;;;;19.33;35.85;99895.63;16104158;19;129859;-65
2024/01/05 17:51:14;;;;;;;2.58;0.43;;;;;;;19.62;35.63;99900.66;16107811;19;129763;-63
2024/01/05 17:56:36;;;;;;;4.25;0.88;;;;;;;19.90;35.38;99903.09;16102862;19;130598;-63
2024/01/05 18:01:58;;;;;;;1.95;0.50;;;;;;;20.12;35.31;99913.94;16092178;19;130144;-63
2024/01/05 18:07:20;;;;;;;1.08;0.40;;;;;;;20.22;35.06;99936.13;16094744;19;130898;-63
2024/01/05 18:12:42;;;;;;;0.70;0.40;;;;;;;20.35;35.17;99944.97;16100164;19;131710;-63
2024/01/05 18:18:07;;;;;;;1.80;0.47;;;;;;;20.47;34.82;99931.59;16104566;19;130577;-63
2024/01/05 18:23:29;;;;;;;1.08;0.28;;;;;;;20.56;34.77;99935.44;16101056;19;129694;-63
2024/01/05 18:28:51;;;;;;;2.22;0.65;;;;;;;20.63;34.68;99939.88;16103451;19;131054;-60
2024/01/05 18:34:13;;;;;;;1.20;0.40;;;;;;;20.66;34.95;99944.88;16102577;19;130770;-60
2024/01/05 18:39:37;;;;;;;1.08;0.30;;;;;;;20.68;34.80;99948.19;16100315;19;130445;-66
2024/01/05 18:45:00;;;;;;;6.93;0.57;;;;;;;20.67;34.97;99961.28;16108676;19;130040;-64
2024/01/05 18:50:21;;;;;;;3.13;0.40;;;;;;;20.69;35.19;99969.31;16102545;19;130953;-61
2024/01/05 18:55:43;;;;;;;2.38;0.52;;;;;;;20.69;35.06;99966.53;16101704;19;132008;-62
2024/01/05 19:01:05;;;;;;;4.63;0.55;;;;;;;20.66;34.95;99967.13;16103471;19;130728;-61
2024/01/05 19:06:27;;;;;;;5.78;0.65;;;;;;;20.65;35.28;99966.28;16106833;19;129519;-61
2024/01/05 19:11:51;;;;;;;10.35;1.00;;;;;;;20.62;35.79;99971.56;16113265;19;133698;-62
2024/01/05 19:17:13;;;;;;;12.38;1.02;;;;;;;20.58;35.83;99986.03;16119325;19;130988;-61
2024/01/05 19:22:40;;;;;;;7.65;1.08;;;;;;;20.52;35.76;99992.72;16116836;19;129772;-60
2024/01/05 19:28:02;;;;;;;12.18;1.20;;;;;;;20.49;35.92;100003.56;16115869;19;130410;-61
2024/01/05 19:33:24;;;;;;;8.32;1.00;;;;;;;20.46;36.53;100013.28;16117978;19;129605;-60
2024/01/05 19:38:46;;;;;;;15.75;1.70;;;;;;;20.42;36.42;100026.91;16110575;19;131213;-61
2024/01/05 19:44:09;;;;;;;12.32;1.13;;;;;;;20.41;36.92;100039.13;16106920;19;129759;-61
2024/01/05 19:49:31;;;;;;;12.45;0.82;;;;;;;20.42;36.77;100042.75;16113528;19;131008;-62
2024/01/05 19:54:54;;;;;;;9.75;1.23;;;;;;;20.44;36.57;100051.63;16117195;19;129857;-62
2024/01/05 20:00:16;;;;;;;10.27;0.70;;;;;;;20.46;36.78;100057.75;16112485;19;129998;-60
2024/01/05 20:05:39;;;;;;;8.25;0.60;;;;;;;20.49;36.69;100059.16;16114121;19;131486;-61
2024/01/05 20:11:01;;;;;;;11.07;0.90;;;;;;;20.49;36.65;100073.84;16113506;19;129531;-62
2024/01/05 20:16:23;;;;;;;8.48;1.02;;;;;;;20.51;36.68;100065.22;16111672;19;129826;-61
2024/01/05 20:21:45;;;;;;;7.05;0.52;;;;;;;20.52;36.57;100078.84;16108537;19;131288;-61
2024/01/05 20:27:09;;;;;;;7.85;1.10;;;;;;;20.54;36.70;100082.19;16109297;19;130823;-61
2024/01/05 20:32:30;;;;;;;3.25;0.70;;;;;;;20.54;36.88;100093.31;16114974;19;129792;-61
2024/01/05 20:37:52;;;;;;;5.60;1.02;;;;;;;20.54;36.68;100098.88;16113797;19;129271;-61
2024/01/05 20:43:14;;;;;;;9.93;1.00;;;;;;;20.55;36.75;100102.47;16113731;19;133715;-61
2024/01/05 20:48:37;;;;;;;9.30;1.00;;;;;;;20.55;37.01;100121.91;16110703;19;131357;-61
2024/01/05 20:54:01;;;;;;;9.43;1.20;;;;;;;20.57;36.92;100114.97;16113451;19;130600;-61
2024/01/05 20:59:23;;;;;;;17.63;1.70;;;;;;;20.59;37.23;100134.97;16116463;19;130444;-61
2024/01/05 21:04:47;;;;;;;12.32;1.50;;;;;;;20.63;37.54;100134.41;16109526;19;129948;-61
2024/01/05 21:10:10;;;;;;;12.53;1.27;;;;;;;20.64;37.49;100147.22;16107555;19;134030;-62
2024/01/05 21:15:31;;;;;;;16.88;1.58;;;;;;;20.60;37.94;100136.63;16112506;19;131016;-61
2024/01/05 21:20:53;;;;;;;16.60;2.35;;;;;;;20.59;38.18;100145.28;16109350;19;130304;-61
2024/01/05 21:26:17;;;;;;;18.27;1.65;;;;;;;20.53;38.01;100144.44;16111877;19;130360;-62
2024/01/05 21:31:44;;;;;;;13.07;1.42;;;;;;;20.48;38.15;100152.75;16108361;19;130941;-61
2024/01/05 21:37:07;;;;;;;14.70;1.50;;;;;;;20.39;38.05;100157.22;16106979;19;130621;-60
2024/01/05 21:42:28;;;;;;;14.98;1.30;;;;;;;20.32;38.08;100159.41;16108390;19;130582;-61
2024/01/05 21:47:50;;;;;;;10.50;1.15;;;;;;;20.25;38.38;100163.31;16106824;19;130548;-64
2024/01/05 21:53:15;;;;;;;17.87;1.80;;;;;;;20.20;38.78;100168.84;16108452;19;131458;-61
2024/01/05 21:58:37;;;;;;;21.38;2.40;;;;;;;20.15;38.51;100171.63;16104475;19;132123;-65
2024/01/05 22:03:59;;;;;;;20.77;1.80;;;;;;;20.11;38.37;100173.28;16102922;19;131606;-62
2024/01/05 22:09:22;;;;;;;19.55;1.98;;;;;;;20.02;38.72;100180.50;16098637;19;131153;-63
2024/01/05 22:14:44;;;;;;;17.90;2.10;;;;;;;19.93;38.54;100183.78;16102800;19;129735;-63
2024/01/05 22:20:06;;;;;;;11.98;1.48;;;;;;;19.83;38.83;100195.69;16105194;19;131523;-63
2024/01/05 22:25:28;;;;;;;11.65;1.67;;;;;;;19.75;38.75;100210.09;16098107;19;131011;-62
2024/01/05 22:30:50;;;;;;;11.65;1.60;;;;;;;19.68;38.65;100206.72;16105192;19;129744;-62
2024/01/05 22:36:13;;;;;;;13.60;1.50;;;;;;;19.61;38.70;100214.47;16104484;19;130107;-62
2024/01/05 22:41:35;;;;;;;17.00;1.70;;;;;;;19.53;38.73;100216.63;16113283;19;132313;-62
2024/01/05 22:47:04;;;;;;;13.90;1.30;;;;;;;19.47;38.59;100226.03;16132872;19;129978;-61
2024/01/05 22:52:26;;;;;;;14.70;1.77;;;;;;;19.40;38.91;100230.16;16135116;19;131737;-62
2024/01/05 22:57:49;;;;;;;5.75;1.38;;;;;;;19.35;38.55;100237.34;16133344;19;130195;-62
2024/01/05 23:03:11;;;;;;;11.38;1.30;;;;;;;19.31;38.67;100247.31;16135752;19;131663;-62
2024/01/05 23:08:33;;;;;;;8.73;1.10;;;;;;;19.24;39.03;100245.88;16134138;19;129666;-61
2024/01/05 23:13:55;;;;;;;7.78;1.15;;;;;;;19.19;38.77;100243.88;16131255;19;134203;-61
2024/01/05 23:19:16;;;;;;;6.35;1.23;;;;;;;19.14;38.87;100244.66;16131841;19;130278;-60
2024/01/05 23:24:38;;;;;;;11.35;1.98;;;;;;;19.11;39.11;100252.66;16127415;19;130568;-62
2024/01/05 23:30:00;;;;;;;7.20;1.30;;;;;;;19.05;39.18;100252.66;16130525;19;130351;-62
2024/01/05 23:35:22;;;;;;;5.60;1.02;;;;;;;19.02;39.15;100253.16;16131739;19;129282;-62
2024/01/05 23:40:44;;;;;;;11.35;1.23;;;;;;;18.99;39.03;100258.41;16131307;19;131191;-62
2024/01/05 23:46:07;;;;;;;7.40;1.00;;;;;;;18.96;39.33;100265.31;16127675;19;129394;-62
2024/01/05 23:51:29;;;;;;;8.00;0.93;;;;;;;18.95;38.76;100273.91;16123511;19;129270;-62
2024/01/05 23:56:51;;;;;;;5.47;0.95;;;;;;;18.88;38.93;100269.44;16112795;19;130983;-62
